Time;durP1;ratioP1;P1;durP2;ratioP2;P2;SDS_P1;SDS_P2;PMS_P1;PMS_P2;Temp;Humidity;BMP_temperature;BMP_pressure;BME280_temperature;BME280_humidity;BME280_pressure;Samples;Min_cycle;Max_cycle;Signal;HPM_P1;HPM_P2
2022/07/21 00:01:49;;;;;;;0.10;0.10;;;;;;;23.67;55.77;101841.59;5011647;28;20029;-80
2022/07/21 00:04:16;;;;;;;0.30;0.30;;;;;;;23.65;55.84;101838.09;5021116;28;20034;-80
2022/07/21 00:06:43;;;;;;;1.27;0.80;;;;;;;23.71;55.68;101835.03;5019999;28;20030;-80
2022/07/21 00:09:10;;;;;;;0.22;0.22;;;;;;;23.68;56.05;101832.53;5020160;28;20049;-80
2022/07/21 00:11:37;;;;;;;0.10;0.10;;;;;;;23.71;55.47;101832.31;5010449;28;20036;-80
2022/07/21 00:14:05;;;;;;;0.45;0.40;;;;;;;23.71;55.89;101821.50;5013946;28;20060;-81
2022/07/21 00:16:32;;;;;;;0.10;0.10;;;;;;;23.67;56.34;101820.81;5018202;28;20033;-81
2022/07/21 00:18:59;;;;;;;0.93;0.88;;;;;;;23.65;56.34;101813.75;5023113;28;20030;-80
2022/07/21 00:21:26;;;;;;;0.10;0.10;;;;;;;23.52;57.24;101811.78;5020360;28;20030;-80
2022/07/21 00:23:53;;;;;;;0.43;0.43;;;;;;;23.47;57.12;101813.88;5018453;28;20504;-80
2022/07/21 00:26:19;;;;;;;0.40;0.40;;;;;;;23.50;56.90;101818.25;5018483;28;20085;-81
2022/07/21 00:28:45;;;;;;;0.10;0.10;;;;;;;23.54;56.23;101817.09;5018931;28;20121;-82
2022/07/21 00:31:11;;;;;;;0.43;0.43;;;;;;;23.53;57.18;101816.22;5017433;28;20573;-81
2022/07/21 00:33:38;;;;;;;0.40;0.40;;;;;;;23.51;56.47;101810.03;5021452;28;20128;-80
2022/07/21 00:36:04;;;;;;;0.15;0.13;;;;;;;23.53;56.81;101808.13;5020251;28;20026;-80
2022/07/21 00:38:31;;;;;;;1.95;0.65;;;;;;;23.55;57.20;101803.50;5014464;28;20039;-82
2022/07/21 00:40:57;;;;;;;1.30;1.20;;;;;;;23.54;57.26;101807.16;5020980;28;20025;-81
2022/07/21 00:43:23;;;;;;;0.08;0.08;;;;;;;23.58;57.37;101814.13;5019653;28;20030;-80
2022/07/21 00:45:54;;;;;;;0.10;0.10;;;;;;;23.63;57.06;101818.38;5013783;28;20076;-81
2022/07/21 00:48:20;;;;;;;0.00;0.00;;;;;;;23.62;56.97;101822.06;5015911;28;20034;-79
2022/07/21 00:50:47;;;;;;;0.40;0.40;;;;;;;23.58;57.21;101822.22;5022213;28;20056;-80
2022/07/21 00:53:13;;;;;;;0.95;0.45;;;;;;;23.61;57.35;101818.47;5023394;28;20029;-81
2022/07/21 00:55:43;;;;;;;1.40;0.93;;;;;;;23.63;57.05;101829.19;5023890;28;20423;-82
2022/07/21 00:58:10;;;;;;;0.10;0.10;;;;;;;23.63;56.95;101824.69;5016871;28;20584;-80
2022/07/21 01:00:36;;;;;;;0.20;0.20;;;;;;;23.65;56.48;101824.56;5004146;28;20033;-80
2022/07/21 01:03:02;;;;;;;0.10;0.10;;;;;;;23.68;57.04;101816.28;5017676;28;20033;-80
2022/07/21 01:05:29;;;;;;;0.30;0.30;;;;;;;23.66;57.18;101808.25;5009902;28;20029;-80
2022/07/21 01:08:02;;;;;;;0.17;0.17;;;;;;;23.66;57.20;101805.53;5009335;28;20029;-80
2022/07/21 01:10:29;;;;;;;0.28;0.28;;;;;;;23.70;57.13;101800.81;5007805;28;20025;-80
2022/07/21 01:12:56;;;;;;;0.08;0.08;;;;;;;23.69;57.30;101793.66;5007953;28;20037;-80
2022/07/21 01:15:23;;;;;;;0.10;0.10;;;;;;;23.71;57.56;101797.16;5015386;28;20058;-80
2022/07/21 01:17:50;;;;;;;0.20;0.20;;;;;;;23.71;57.31;101810.69;5004333;28;20169;-80
2022/07/21 01:20:18;;;;;;;1.65;0.93;;;;;;;23.66;57.88;101804.69;5012019;28;20093;-80
2022/07/21 01:22:47;;;;;;;0.52;0.52;;;;;;;23.61;57.57;101791.41;5010161;28;20052;-80
2022/07/21 01:25:15;;;;;;;0.38;0.38;;;;;;;23.58;57.98;101784.38;5022133;28;20100;-80
2022/07/21 01:27:41;;;;;;;0.10;0.10;;;;;;;23.57;57.42;101777.19;5016692;28;20041;-80
2022/07/21 01:30:09;;;;;;;0.70;0.70;;;;;;;23.64;56.87;101774.13;5014028;28;20044;-80
2022/07/21 01:32:38;;;;;;;0.30;0.30;;;;;;;23.60;56.88;101776.16;5015622;28;20033;-80
2022/07/21 01:35:06;;;;;;;0.00;0.00;;;;;;;23.59;57.26;101772.59;5017796;28;20072;-80
2022/07/21 01:37:38;;;;;;;0.00;0.00;;;;;;;23.59;57.31;101782.53;5016678;28;20030;-81
2022/07/21 01:42:53;;;;;;;0.10;0.10;;;;;;;23.54;57.87;101788.22;5016505;28;20037;-80
2022/07/21 01:45:22;;;;;;;0.10;0.10;;;;;;;23.53;58.01;101786.47;5016462;28;20090;-80
2022/07/21 01:47:48;;;;;;;0.20;0.20;;;;;;;23.51;58.25;101777.56;5022927;28;20048;-80
2022/07/21 01:50:14;;;;;;;0.13;0.13;;;;;;;23.51;58.15;101772.16;5024043;28;20034;-80
2022/07/21 01:52:40;;;;;;;0.10;0.10;;;;;;;23.50;58.36;101769.56;5023128;28;20421;-81
2022/07/21 01:55:07;;;;;;;0.20;0.20;;;;;;;23.47;58.62;101765.22;5022715;28;20030;-81
2022/07/21 01:57:33;;;;;;;0.52;0.52;;;;;;;23.48;57.83;101755.25;5008892;28;20034;-81
2022/07/21 02:00:00;;;;;;;0.22;0.22;;;;;;;23.46;58.09;101752.63;5010714;28;20022;-80
2022/07/21 02:02:26;;;;;;;0.13;0.13;;;;;;;23.45;58.45;101764.41;5002564;28;20054;-80
2022/07/21 02:04:53;;;;;;;0.43;0.43;;;;;;;23.42;58.18;101770.88;5003612;28;20022;-80
2022/07/21 02:07:19;;;;;;;0.08;0.08;;;;;;;23.41;58.39;101774.56;5003852;28;20091;-80
2022/07/21 02:09:45;;;;;;;0.10;0.10;;;;;;;23.41;58.59;101774.56;5011765;28;20038;-80
2022/07/21 02:12:11;;;;;;;0.10;0.10;;;;;;;23.40;58.95;101769.22;5010248;28;20037;-81
2022/07/21 02:14:37;;;;;;;0.70;0.63;;;;;;;23.41;58.37;101781.81;5018933;28;20042;-80
2022/07/21 02:17:04;;;;;;;0.20;0.20;;;;;;;23.37;58.84;101791.06;5003391;28;20062;-81
2022/07/21 02:19:30;;;;;;;0.88;0.88;;;;;;;23.35;59.07;101788.47;5002680;28;20030;-80
2022/07/21 02:21:56;;;;;;;1.90;0.45;;;;;;;23.37;58.98;101797.34;5002150;28;20029;-80
2022/07/21 02:24:22;;;;;;;0.10;0.10;;;;;;;23.39;58.82;101790.00;5010111;28;20041;-81
2022/07/21 02:26:48;;;;;;;0.17;0.17;;;;;;;23.45;58.55;101782.50;5019336;28;20049;-81
2022/07/21 02:29:20;;;;;;;0.20;0.20;;;;;;;23.45;58.99;101780.66;5018267;28;20030;-80
2022/07/21 02:31:46;;;;;;;0.03;0.03;;;;;;;23.50;58.62;101772.25;5021812;28;20037;-81
2022/07/21 02:34:12;;;;;;;0.20;0.20;;;;;;;23.51;58.97;101772.16;5021380;28;20022;-81
2022/07/21 02:36:39;;;;;;;0.40;0.40;;;;;;;23.53;58.66;101763.97;5016643;28;20030;-81
2022/07/21 02:39:05;;;;;;;0.22;0.22;;;;;;;23.53;58.70;101755.88;5010329;28;20109;-80
2022/07/21 02:41:31;;;;;;;0.10;0.10;;;;;;;23.56;58.75;101761.97;5000551;28;20430;-80
2022/07/21 02:43:58;;;;;;;0.10;0.10;;;;;;;23.56;58.91;101752.97;5001605;28;20573;-81
2022/07/21 02:46:24;;;;;;;0.10;0.10;;;;;;;23.56;58.62;101750.25;5002496;28;20039;-81
2022/07/21 02:48:50;;;;;;;0.35;0.35;;;;;;;23.55;59.13;101741.28;5010106;28;20100;-80
2022/07/21 02:51:16;;;;;;;0.47;0.47;;;;;;;23.58;58.86;101751.03;5019279;28;20060;-80
2022/07/21 02:53:42;;;;;;;0.10;0.10;;;;;;;23.57;58.81;101755.56;5015364;28;20490;-81
2022/07/21 02:56:08;;;;;;;0.10;0.10;;;;;;;23.57;58.77;101755.56;5015609;28;20034;-80
2022/07/21 02:58:34;;;;;;;0.32;0.32;;;;;;;23.57;59.06;101755.56;5020437;28;20030;-80
2022/07/21 03:01:03;;;;;;;0.00;0.00;;;;;;;23.56;59.40;101752.97;5020139;28;20133;-80
2022/07/21 03:03:33;;;;;;;0.10;0.10;;;;;;;23.53;59.04;101745.06;5020928;28;20030;-79
2022/07/21 03:06:00;;;;;;;0.90;0.90;;;;;;;23.50;59.65;101758.75;5018866;28;20025;-80
2022/07/21 03:08:27;;;;;;;0.32;0.32;;;;;;;23.50;59.08;101751.50;5019224;28;20040;-81
2022/07/21 03:10:53;;;;;;;0.20;0.20;;;;;;;23.51;59.12;101752.38;5011970;28;20474;-81
2022/07/21 03:13:20;;;;;;;0.20;0.20;;;;;;;23.46;59.84;101747.22;5021157;28;20042;-80
2022/07/21 03:15:46;;;;;;;0.20;0.20;;;;;;;23.45;59.51;101742.78;5020493;28;20038;-80
2022/07/21 03:18:12;;;;;;;0.35;0.35;;;;;;;23.46;59.19;101741.81;5019745;28;20034;-80
2022/07/21 03:20:40;;;;;;;0.70;0.28;;;;;;;23.46;59.59;101733.72;5018010;28;20034;-80
2022/07/21 03:23:06;;;;;;;0.10;0.10;;;;;;;23.46;59.62;101731.00;5013853;28;20526;-80
2022/07/21 03:25:32;;;;;;;0.25;0.25;;;;;;;23.44;59.54;101732.94;5017703;28;20045;-80
2022/07/21 03:27:59;;;;;;;0.32;0.32;;;;;;;23.45;59.54;101734.66;5020763;28;20026;-79
2022/07/21 03:30:26;;;;;;;0.73;0.68;;;;;;;23.41;59.99;101733.13;5020585;28;20037;-80
2022/07/21 03:32:52;;;;;;;0.85;0.43;;;;;;;23.36;60.01;101740.66;5020575;28;20167;-80
2022/07/21 03:35:19;;;;;;;0.85;0.85;;;;;;;23.37;59.52;101742.38;5037235;22;20537;-80
2022/07/21 03:37:49;;;;;;;0.10;0.10;;;;;;;23.33;59.89;101747.09;5006450;28;20041;-79
2022/07/21 03:40:19;;;;;;;0.10;0.10;;;;;;;23.30;60.51;101751.81;5004677;28;20118;-79
2022/07/21 03:42:45;;;;;;;1.15;1.13;;;;;;;23.29;60.17;101741.97;4996589;28;20033;-80
2022/07/21 03:45:11;;;;;;;0.40;0.40;;;;;;;23.26;60.27;101734.91;4996079;28;20034;-79
2022/07/21 03:47:38;;;;;;;1.20;1.20;;;;;;;23.30;59.86;101741.88;5002722;28;20056;-80
2022/07/21 03:50:05;;;;;;;0.50;0.50;;;;;;;23.31;60.14;101745.47;5007705;28;20037;-79
2022/07/21 03:52:31;;;;;;;0.40;0.40;;;;;;;23.28;60.50;101751.94;4998512;28;20035;-80
2022/07/21 03:55:14;;;;;;;0.40;0.40;;;;;;;23.26;60.46;101752.03;5009995;28;20029;-80
2022/07/21 03:57:46;;;;;;;0.80;0.60;;;;;;;23.26;60.51;101759.25;5011239;28;20031;-79
2022/07/21 04:00:16;;;;;;;0.20;0.20;;;;;;;23.30;60.25;101757.25;5020475;28;20030;-80
2022/07/21 04:02:42;;;;;;;1.20;1.17;;;;;;;23.27;60.57;101761.00;5020089;28;20053;-79
2022/07/21 04:05:10;;;;;;;0.28;0.28;;;;;;;23.30;60.36;101762.66;5020235;28;20030;-79
2022/07/21 04:07:38;;;;;;;4.13;1.73;;;;;;;23.33;60.53;101765.16;5010929;28;20058;-79
2022/07/21 04:10:04;;;;;;;0.45;0.43;;;;;;;23.33;60.29;101759.75;5013372;28;20038;-80
2022/07/21 04:12:30;;;;;;;0.10;0.10;;;;;;;23.35;60.29;101763.22;5001139;28;20038;-79
2022/07/21 04:14:56;;;;;;;0.30;0.30;;;;;;;23.36;60.31;101757.72;4997882;28;20034;-80
2022/07/21 04:17:23;;;;;;;0.90;0.90;;;;;;;23.38;60.42;101761.22;4996483;28;20036;-80
2022/07/21 04:19:49;;;;;;;0.30;0.30;;;;;;;23.35;60.19;101757.81;4997855;28;20049;-80
2022/07/21 04:22:15;;;;;;;0.63;0.63;;;;;;;23.22;60.71;101758.56;5006161;28;20031;-80
2022/07/21 04:24:42;;;;;;;0.45;0.45;;;;;;;23.23;60.53;101752.19;5004986;28;20643;-80
2022/07/21 04:27:08;;;;;;;0.65;0.65;;;;;;;23.23;60.40;101752.19;4997451;28;20084;-80
2022/07/21 04:29:34;;;;;;;5.53;0.90;;;;;;;23.20;59.99;101746.97;4998076;28;20041;-80
2022/07/21 04:32:00;;;;;;;1.60;1.45;;;;;;;23.13;61.09;101745.56;4996149;28;20026;-80
2022/07/21 04:34:28;;;;;;;0.20;0.20;;;;;;;23.19;60.69;101744.34;4996560;28;20061;-80
2022/07/21 04:36:54;;;;;;;0.22;0.22;;;;;;;23.12;60.96;101749.22;5005586;28;20025;-80
2022/07/21 04:39:20;;;;;;;0.20;0.20;;;;;;;23.18;60.77;101758.81;5008391;28;20037;-80
2022/07/21 04:41:46;;;;;;;0.75;0.52;;;;;;;23.15;60.87;101753.56;5004740;28;20484;-80
2022/07/21 04:44:12;;;;;;;0.20;0.20;;;;;;;23.06;61.08;101763.09;4996740;28;20101;-80
2022/07/21 04:46:39;;;;;;;0.82;0.82;;;;;;;23.11;60.95;101763.69;4995424;28;20457;-80
2022/07/21 04:49:05;;;;;;;0.10;0.10;;;;;;;23.10;61.11;101759.25;4998030;28;20030;-80
2022/07/21 04:51:31;;;;;;;0.82;0.30;;;;;;;23.07;60.88;101762.13;5004525;28;20414;-80
2022/07/21 04:53:57;;;;;;;0.35;0.35;;;;;;;23.12;60.74;101770.00;5003745;28;20110;-80
2022/07/21 04:56:23;;;;;;;0.90;0.82;;;;;;;23.08;60.80;101758.47;4995745;28;20026;-80
2022/07/21 04:58:49;;;;;;;0.63;0.63;;;;;;;23.01;60.51;101759.78;4995533;28;20546;-80
2022/07/21 05:01:17;;;;;;;0.10;0.10;;;;;;;23.04;60.58;101767.72;5003072;28;20109;-80
2022/07/21 05:03:44;;;;;;;0.68;0.68;;;;;;;23.05;60.65;101769.44;5002510;28;20572;-80
2022/07/21 05:06:10;;;;;;;0.43;0.43;;;;;;;23.02;60.95;101766.94;5000267;28;20116;-80
2022/07/21 05:08:36;;;;;;;0.68;0.65;;;;;;;22.91;60.81;101760.31;4995445;28;20042;-80
2022/07/21 05:11:02;;;;;;;0.77;0.77;;;;;;;23.06;60.53;101766.66;4994425;28;20059;-80
2022/07/21 05:13:28;;;;;;;0.65;0.65;;;;;;;23.04;60.94;101765.88;4995035;28;20033;-80
2022/07/21 05:15:54;;;;;;;0.20;0.20;;;;;;;23.01;60.40;101763.34;4994805;28;20034;-80
2022/07/21 05:18:20;;;;;;;0.60;0.57;;;;;;;23.02;60.96;101756.13;5000441;28;20088;-80
2022/07/21 05:20:46;;;;;;;0.35;0.35;;;;;;;23.05;60.71;101769.44;5002848;28;20026;-80
2022/07/21 05:23:13;;;;;;;0.30;0.30;;;;;;;23.05;60.62;101753.25;4999071;28;20092;-80
2022/07/21 05:25:39;;;;;;;0.30;0.30;;;;;;;23.05;60.85;101758.66;4999475;28;20037;-80
2022/07/21 05:28:07;;;;;;;1.15;0.47;;;;;;;23.14;60.29;101754.53;5003286;28;20034;-79
2022/07/21 05:30:33;;;;;;;0.68;0.68;;;;;;;23.14;60.70;101755.41;5003281;28;20081;-80
2022/07/21 05:32:59;;;;;;;0.15;0.15;;;;;;;23.13;60.66;101755.47;5012205;28;20477;-80
2022/07/21 05:35:25;;;;;;;0.93;0.88;;;;;;;23.18;60.58;101748.88;5014846;28;20040;-80
2022/07/21 05:37:51;;;;;;;0.30;0.30;;;;;;;23.16;60.50;101745.41;5003804;28;20034;-80
2022/07/21 05:40:17;;;;;;;0.35;0.35;;;;;;;23.17;60.38;101752.56;5002989;28;20030;-80
2022/07/21 05:42:43;;;;;;;5.57;1.95;;;;;;;23.18;60.39;101748.88;5003036;28;20031;-80
2022/07/21 05:45:11;;;;;;;0.28;0.28;;;;;;;23.15;60.47;101748.16;5003417;28;20030;-80
2022/07/21 05:47:38;;;;;;;0.30;0.30;;;;;;;23.24;60.40;101748.53;5015997;28;20458;-80
2022/07/21 05:50:04;;;;;;;0.70;0.70;;;;;;;23.21;60.26;101750.53;5012988;28;20041;-80
2022/07/21 05:52:31;;;;;;;0.30;0.30;;;;;;;23.21;60.74;101743.28;5015665;28;20095;-80
2022/07/21 05:54:57;;;;;;;0.40;0.40;;;;;;;23.26;60.48;101751.13;5021652;28;20034;-80
2022/07/21 05:57:23;;;;;;;1.95;0.70;;;;;;;23.26;60.21;101743.91;5021801;28;20065;-79
2022/07/21 05:59:49;;;;;;;0.17;0.17;;;;;;;23.26;60.94;101749.31;5025555;28;20030;-77
2022/07/21 06:02:15;;;;;;;0.95;0.95;;;;;;;23.33;60.88;101751.63;5013669;28;20033;-77
2022/07/21 06:04:41;;;;;;;6.38;1.85;;;;;;;23.31;60.73;101743.63;5015138;28;20068;-78
2022/07/21 06:07:07;;;;;;;0.57;0.57;;;;;;;23.35;60.46;101750.59;5013853;28;20030;-78
2022/07/21 06:09:33;;;;;;;0.47;0.47;;;;;;;23.42;60.02;101751.09;5006238;28;20060;-77
2022/07/21 06:11:59;;;;;;;6.78;2.42;;;;;;;23.34;60.32;101748.84;5009811;28;20030;-78
2022/07/21 06:14:25;;;;;;;0.82;0.82;;;;;;;23.42;60.70;101757.38;5015292;28;20032;-78
2022/07/21 06:16:52;;;;;;;0.70;0.47;;;;;;;23.46;60.38;101752.63;5010332;28;20045;-78
2022/07/21 06:19:18;;;;;;;0.57;0.57;;;;;;;23.48;60.19;101750.72;5009581;28;20457;-78
2022/07/21 06:21:44;;;;;;;0.22;0.22;;;;;;;23.47;60.06;101757.09;5003830;28;20545;-78
2022/07/21 06:24:10;;;;;;;0.30;0.30;;;;;;;23.47;60.55;101756.25;5004803;28;20034;-77
2022/07/21 06:26:38;;;;;;;3.40;0.75;;;;;;;23.39;61.01;101756.66;5015621;28;20037;-79
2022/07/21 06:29:06;;;;;;;1.27;1.17;;;;;;;23.43;61.05;101760.97;5013307;28;20041;-77
2022/07/21 06:31:32;;;;;;;0.10;0.10;;;;;;;23.33;61.29;101759.75;5017775;28;20034;-78
2022/07/21 06:33:58;;;;;;;0.30;0.30;;;;;;;23.24;61.79;101756.63;5018959;28;20057;-78
2022/07/21 06:36:25;;;;;;;0.30;0.30;;;;;;;23.22;61.96;101755.84;5012077;28;20037;-78
2022/07/21 06:38:51;;;;;;;1.00;1.00;;;;;;;23.25;62.29;101755.69;5027240;28;20030;-78
2022/07/21 06:41:17;;;;;;;0.68;0.68;;;;;;;23.26;62.37;101752.03;5027052;28;20060;-78
2022/07/21 06:43:43;;;;;;;0.38;0.38;;;;;;;23.27;62.00;101756.44;5017048;28;20125;-78
2022/07/21 06:46:09;;;;;;;0.28;0.28;;;;;;;23.27;62.45;101753.75;5020480;28;20030;-78
2022/07/21 06:48:35;;;;;;;0.47;0.35;;;;;;;23.25;61.98;101757.50;5015769;28;20045;-77
2022/07/21 06:51:01;;;;;;;0.10;0.10;;;;;;;23.25;62.07;101755.69;5012734;28;20037;-78
2022/07/21 06:53:28;;;;;;;2.88;0.95;;;;;;;23.27;62.09;101750.19;5013863;28;20034;-78
2022/07/21 06:55:54;;;;;;;0.40;0.40;;;;;;;23.18;62.28;101758.81;5017095;28;20026;-78
2022/07/21 06:58:24;;;;;;;0.47;0.47;;;;;;;23.10;63.26;101772.75;5014088;28;20402;-78
2022/07/21 07:00:51;;;;;;;0.30;0.30;;;;;;;22.97;63.17;101772.59;5017875;28;20502;-78
2022/07/21 07:03:18;;;;;;;0.10;0.10;;;;;;;22.67;64.70;101773.41;5018279;28;20042;-78
2022/07/21 07:05:46;;;;;;;1.20;1.13;;;;;;;22.61;64.63;101771.91;5017255;28;20176;-77
2022/07/21 07:08:13;;;;;;;0.30;0.30;;;;;;;22.42;65.55;101776.63;5017633;28;20026;-77
2022/07/21 07:10:40;;;;;;;2.38;2.28;;;;;;;22.43;65.12;101789.13;5016657;28;20029;-77
2022/07/21 07:13:08;;;;;;;0.28;0.28;;;;;;;22.14;66.50;101794.25;5017147;28;20021;-77
2022/07/21 07:15:34;;;;;;;0.60;0.60;;;;;;;22.12;66.61;101798.88;5017876;28;20034;-77
2022/07/21 07:18:00;;;;;;;0.57;0.50;;;;;;;22.01;67.35;101791.34;5020255;28;20038;-77
2022/07/21 07:20:27;;;;;;;0.68;0.65;;;;;;;21.91;67.91;101801.75;5016181;28;20086;-78
2022/07/21 07:22:53;;;;;;;1.77;1.10;;;;;;;22.00;67.62;101800.41;5018071;28;20113;-78
2022/07/21 07:25:19;;;;;;;0.10;0.10;;;;;;;21.86;68.56;101800.25;5018917;28;20029;-78
2022/07/21 07:27:47;;;;;;;1.48;1.38;;;;;;;21.89;68.62;101797.41;5022661;28;20037;-78
2022/07/21 07:30:14;;;;;;;0.47;0.47;;;;;;;21.72;69.12;101800.97;5016643;28;20039;-79
2022/07/21 07:32:40;;;;;;;0.55;0.55;;;;;;;21.72;69.09;101803.66;5018241;28;20030;-78
2022/07/21 07:35:09;;;;;;;0.30;0.30;;;;;;;21.67;68.46;101803.94;5018210;28;20089;-78
2022/07/21 07:37:36;;;;;;;0.28;0.28;;;;;;;21.67;68.43;101801.22;5017120;28;20022;-79
2022/07/21 07:40:07;;;;;;;0.10;0.10;;;;;;;21.64;69.29;101795.97;5026130;28;20089;-79
2022/07/21 07:42:34;;;;;;;0.70;0.70;;;;;;;21.57;69.44;101791.84;5018151;28;20038;-79
2022/07/21 07:45:00;;;;;;;0.10;0.10;;;;;;;21.59;69.49;101798.91;5025536;28;20037;-79
2022/07/21 07:47:27;;;;;;;0.00;0.00;;;;;;;21.46;70.02;101797.78;5020716;28;20035;-79
2022/07/21 07:49:53;;;;;;;0.77;0.38;;;;;;;21.46;69.62;101789.69;5031274;28;20030;-79
2022/07/21 07:52:20;;;;;;;0.00;0.00;;;;;;;21.38;69.95;101797.28;5030814;28;20034;-79
2022/07/21 07:54:46;;;;;;;0.00;0.00;;;;;;;21.41;69.79;101795.31;5022357;28;20106;-79
2022/07/21 07:57:13;;;;;;;0.10;0.10;;;;;;;21.37;70.63;101800.94;5019399;28;20044;-79
2022/07/21 07:59:39;;;;;;;0.15;0.15;;;;;;;21.39;70.50;101802.59;5019771;28;20018;-79
2022/07/21 08:02:05;;;;;;;0.10;0.10;;;;;;;21.39;70.63;101807.13;5018585;28;20027;-78
2022/07/21 08:04:31;;;;;;;0.30;0.28;;;;;;;21.41;70.67;101816.00;5011245;28;20102;-79
2022/07/21 08:06:57;;;;;;;0.10;0.10;;;;;;;21.37;70.35;101811.72;5011301;28;20096;-79
2022/07/21 08:09:23;;;;;;;0.10;0.10;;;;;;;21.37;70.02;101818.00;5014240;28;20034;-78
2022/07/21 08:11:50;;;;;;;0.15;0.15;;;;;;;21.39;70.00;101823.31;5019472;28;20034;-79
2022/07/21 08:14:17;;;;;;;0.20;0.20;;;;;;;21.36;70.32;101826.13;5025587;28;20665;-79
2022/07/21 08:16:43;;;;;;;0.30;0.30;;;;;;;21.31;70.68;101821.84;5019381;28;20035;-79
2022/07/21 08:19:09;;;;;;;0.20;0.20;;;;;;;21.25;70.54;101822.16;5023069;28;20085;-79
2022/07/21 08:21:36;;;;;;;0.40;0.40;;;;;;;21.33;70.80;101828.06;5016919;28;20054;-79
2022/07/21 08:24:02;;;;;;;0.10;0.10;;;;;;;21.42;70.45;101833.91;5019804;28;20030;-79
2022/07/21 08:26:28;;;;;;;3.42;1.17;;;;;;;21.37;70.12;101835.97;5024493;28;20446;-78
2022/07/21 08:28:56;;;;;;;0.10;0.10;;;;;;;21.28;70.77;101827.41;5015931;28;20030;-79
2022/07/21 08:31:23;;;;;;;0.00;0.00;;;;;;;21.27;70.35;101831.06;5016370;28;20042;-78
2022/07/21 08:33:50;;;;;;;0.00;0.00;;;;;;;21.28;70.69;101832.81;5007574;28;20087;-79
2022/07/21 08:36:17;;;;;;;0.28;0.28;;;;;;;21.24;71.03;101839.28;5010146;28;20042;-79
2022/07/21 08:38:43;;;;;;;0.17;0.17;;;;;;;21.29;70.74;101833.66;5017049;28;20066;-78
2022/07/21 08:41:10;;;;;;;0.03;0.03;;;;;;;21.39;70.01;101834.09;5009018;28;20026;-80
2022/07/21 08:43:36;;;;;;;0.08;0.08;;;;;;;21.36;70.60;101839.59;5001532;28;20027;-79
2022/07/21 08:46:03;;;;;;;0.28;0.28;;;;;;;21.46;70.32;101839.09;5009718;28;20042;-79
2022/07/21 08:48:29;;;;;;;0.10;0.10;;;;;;;21.43;70.55;101843.75;5012089;28;20042;-79
2022/07/21 08:50:56;;;;;;;0.15;0.15;;;;;;;21.40;70.31;101836.69;5006211;28;20037;-79
2022/07/21 08:53:24;;;;;;;0.15;0.15;;;;;;;21.38;69.89;101843.13;4999412;28;20035;-79
2022/07/21 08:55:50;;;;;;;0.98;0.98;;;;;;;21.37;70.26;101846.75;4999058;28;20034;-79
2022/07/21 08:58:17;;;;;;;0.60;0.60;;;;;;;21.28;70.29;101848.97;4999277;28;20437;-79
2022/07/21 09:00:46;;;;;;;0.80;0.80;;;;;;;21.11;71.18;101855.19;5010254;28;20022;-79
2022/07/21 09:08:44;;;;;;;0.85;0.85;;;;;;;21.12;70.72;101847.94;5111491;27;20419;-79
2022/07/21 09:14:07;;;;;;;1.67;1.58;;;;;;;20.96;71.36;101854.09;5073161;28;20394;-79
2022/07/21 09:16:37;;;;;;;1.25;1.13;;;;;;;21.02;71.14;101850.22;5050518;28;20091;-79
2022/07/21 09:19:05;;;;;;;0.30;0.30;;;;;;;20.94;70.99;101852.44;5052532;28;20386;-79
2022/07/21 09:21:33;;;;;;;0.10;0.10;;;;;;;20.95;70.85;101860.44;5051180;28;20095;-80
2022/07/21 09:29:50;;;;;;;1.00;0.63;;;;;;;20.90;70.97;101875.03;5110366;27;20385;-78
2022/07/21 09:35:09;;;;;;;0.32;0.32;;;;;;;20.89;70.80;101868.78;5112200;22;20392;-78
2022/07/21 09:37:37;;;;;;;0.22;0.22;;;;;;;20.86;71.04;101874.34;5041061;28;20068;-81
2022/07/21 09:40:07;;;;;;;0.10;0.10;;;;;;;20.85;71.03;101872.59;5028930;28;20437;-80
2022/07/21 09:42:37;;;;;;;0.47;0.47;;;;;;;20.90;70.58;101870.56;5015875;28;20034;-81
2022/07/21 09:45:07;;;;;;;0.10;0.10;;;;;;;20.79;71.10;101878.25;5019857;28;20030;-80
2022/07/21 09:47:34;;;;;;;0.08;0.08;;;;;;;20.85;70.87;101877.97;5021079;28;20041;-81
2022/07/21 09:50:01;;;;;;;0.85;0.85;;;;;;;20.84;71.05;101876.22;5020981;28;20050;-81
2022/07/21 09:52:30;;;;;;;0.32;0.32;;;;;;;20.86;70.55;101874.34;5020218;28;20076;-80
2022/07/21 09:55:02;;;;;;;0.10;0.10;;;;;;;20.94;70.32;101882.91;5019249;28;20125;-80
2022/07/21 09:57:28;;;;;;;0.30;0.30;;;;;;;20.87;70.61;101886.84;5020092;28;20056;-80
2022/07/21 09:59:56;;;;;;;1.60;0.85;;;;;;;20.92;70.39;101887.53;5019309;28;20038;-81
2022/07/21 10:02:31;;;;;;;0.10;0.10;;;;;;;21.06;70.04;101880.59;5018252;28;20036;-80
2022/07/21 10:07:38;;;;;;;0.30;0.30;;;;;;;20.92;71.04;101879.44;5120266;27;20144;-78
2022/07/21 10:10:04;;;;;;;0.20;0.20;;;;;;;20.92;71.17;101890.22;5120854;28;20031;-78
2022/07/21 10:12:30;;;;;;;0.10;0.10;;;;;;;20.83;71.44;101879.84;5125922;28;20023;-78
2022/07/21 10:14:57;;;;;;;0.20;0.20;;;;;;;20.80;71.67;101894.34;5127801;28;20515;-78
2022/07/21 10:17:25;;;;;;;0.10;0.10;;;;;;;20.89;71.41;101889.47;5127280;28;20083;-77
2022/07/21 10:20:16;;;;;;;0.10;0.10;;;;;;;20.77;72.00;101885.53;5143216;27;20027;-79
2022/07/21 10:25:25;;;;;;;0.10;0.10;;;;;;;20.99;71.77;101885.41;5124544;27;1167937;-79
2022/07/21 10:41:46;;;;;;;0.10;0.10;;;;;;;21.01;71.74;101897.00;5098589;28;20441;-80
2022/07/21 10:44:38;;;;;;;0.20;0.20;;;;;;;21.12;71.51;101899.16;5099853;28;20028;-78
2022/07/21 10:55:33;;;;;;;0.10;0.10;;;;;;;21.20;71.64;101907.75;5079226;28;20356;-79
2022/07/21 11:04:09;;;;;;;0.10;0.10;;;;;;;21.38;71.70;101913.19;5059453;28;20410;-79
2022/07/21 11:06:38;;;;;;;0.28;0.28;;;;;;;21.37;71.70;101914.16;5059720;28;20037;-78
2022/07/21 11:14:44;;;;;;;0.10;0.10;;;;;;;21.47;71.17;101918.13;5126098;27;1167009;-78
2022/07/21 11:17:28;;;;;;;0.10;0.10;;;;;;;21.54;70.58;101918.72;5135412;28;20031;-77
2022/07/21 11:19:54;;;;;;;0.08;0.08;;;;;;;21.43;70.65;101924.63;5136164;28;20027;-80
2022/07/21 11:22:23;;;;;;;0.00;0.00;;;;;;;21.42;70.91;101925.56;5141024;28;20032;-80
2022/07/21 11:27:31;;;;;;;0.10;0.10;;;;;;;21.46;70.63;101937.97;5120122;27;20395;-79
2022/07/21 11:30:00;;;;;;;0.13;0.13;;;;;;;21.40;70.65;101932.88;5120831;28;20056;-79
2022/07/21 11:32:26;;;;;;;0.40;0.40;;;;;;;21.24;70.30;101944.38;5120322;28;20028;-79
2022/07/21 11:42:45;;;;;;;0.10;0.10;;;;;;;21.17;71.27;101933.03;5100262;27;20413;-79
2022/07/21 11:45:13;;;;;;;0.00;0.00;;;;;;;21.26;70.84;101934.41;5099708;28;20043;-79
2022/07/21 11:47:40;;;;;;;0.00;0.00;;;;;;;21.13;71.30;101942.22;5101513;28;20027;-78
2022/07/21 11:50:09;;;;;;;0.00;0.00;;;;;;;21.11;71.11;101943.22;5100395;28;20024;-79
2022/07/21 11:52:37;;;;;;;0.25;0.25;;;;;;;21.12;71.05;101931.50;5099316;28;20020;-79
2022/07/21 11:55:05;;;;;;;0.10;0.10;;;;;;;20.92;71.92;101932.44;5100274;28;20410;-79
2022/07/21 11:57:31;;;;;;;0.10;0.10;;;;;;;21.03;71.80;101937.31;5097180;28;20046;-79
2022/07/21 11:59:58;;;;;;;0.10;0.10;;;;;;;21.13;71.62;101934.13;5098513;28;20082;-79
2022/07/21 12:02:29;;;;;;;0.10;0.10;;;;;;;21.11;72.08;101937.81;5098745;28;20380;-79
2022/07/21 12:04:58;;;;;;;0.10;0.10;;;;;;;21.24;71.80;101928.22;5100785;28;20036;-79
2022/07/21 12:07:30;;;;;;;0.00;0.00;;;;;;;21.28;71.86;101928.94;5101598;28;20024;-79
2022/07/21 12:09:59;;;;;;;0.10;0.10;;;;;;;21.28;71.41;101929.84;5101279;28;20055;-79
2022/07/21 12:12:32;;;;;;;0.10;0.10;;;;;;;21.19;71.75;101938.34;5101128;28;20070;-78
2022/07/21 12:15:18;;;;;;;0.00;0.00;;;;;;;21.03;71.65;101940.03;5092429;28;20032;-78
2022/07/21 12:17:49;;;;;;;0.03;0.03;;;;;;;21.12;71.32;101939.56;5098549;28;20028;-79
2022/07/21 12:20:24;;;;;;;0.15;0.15;;;;;;;20.88;72.19;101944.31;5098446;28;20528;-78
2022/07/21 12:22:51;;;;;;;0.30;0.30;;;;;;;20.95;72.06;101946.63;5097907;28;20032;-79
2022/07/21 12:25:29;;;;;;;0.00;0.00;;;;;;;20.88;72.18;101957.75;5099776;28;20042;-79
2022/07/21 12:27:56;;;;;;;0.00;0.00;;;;;;;20.95;71.86;101949.31;5096060;28;20047;-79
2022/07/21 12:33:18;;;;;;;0.00;0.00;;;;;;;20.84;72.63;101949.81;5127841;27;1167031;-79
2022/07/21 12:35:57;;;;;;;0.10;0.10;;;;;;;20.97;72.54;101947.44;5132620;27;20024;-80
2022/07/21 12:38:34;;;;;;;0.03;0.03;;;;;;;20.95;72.68;101964.63;5120248;28;20024;-80